createdAt,value
2022-10-05T00:00:31.579Z,100809.63
2022-10-05T00:03:36.980Z,100810.84
2022-10-05T00:06:38.757Z,100818.44
2022-10-05T00:09:41.122Z,100826.16
2022-10-05T00:12:44.629Z,100826.94
2022-10-05T00:15:48.137Z,100829.22
2022-10-05T00:18:52.681Z,100831.00
2022-10-05T00:21:56.982Z,100834.84
2022-10-05T00:25:00.938Z,100841.94
2022-10-05T00:28:03.002Z,100847.50
2022-10-05T00:31:14.886Z,100840.16
2022-10-05T00:34:17.677Z,100837.84
2022-10-05T00:37:19.604Z,100839.00
2022-10-05T00:40:35.359Z,100840.44
2022-10-05T00:43:58.511Z,100832.47
2022-10-05T00:47:07.193Z,100838.47
2022-10-05T00:50:50.863Z,100824.25
2022-10-05T00:54:05.493Z,100821.13
2022-10-05T00:57:29.273Z,100815.44
2022-10-05T01:00:35.153Z,100810.78
2022-10-05T01:03:49.654Z,100803.31
2022-10-05T01:07:04.171Z,100795.28
2022-10-05T01:10:13.042Z,100777.53
2022-10-05T01:13:25.352Z,100775.66
2022-10-05T01:16:31.285Z,100797.53
2022-10-05T01:20:10.658Z,100798.53
2022-10-05T01:23:34.363Z,100786.00
2022-10-05T01:26:49.185Z,100783.97
2022-10-05T01:29:59.281Z,100784.84
2022-10-05T01:33:12.033Z,100783.59
2022-10-05T01:36:24.969Z,100788.22
2022-10-05T01:39:34.927Z,100791.03
2022-10-05T01:42:46.237Z,100799.69
2022-10-05T01:45:59.361Z,100794.47
2022-10-05T01:49:17.577Z,100796.66
2022-10-05T01:52:30.881Z,100796.66
2022-10-05T01:55:39.519Z,100800.53
2022-10-05T01:58:48.330Z,100802.72
2022-10-05T02:01:58.300Z,100800.31
2022-10-05T02:05:08.192Z,100801.53
2022-10-05T02:08:14.951Z,100791.09
2022-10-05T02:11:16.925Z,100793.63
2022-10-05T02:14:23.137Z,100788.31
2022-10-05T02:17:32.158Z,100780.88
2022-10-05T02:20:37.395Z,100770.69
2022-10-05T02:23:42.807Z,100756.97
2022-10-05T02:26:46.860Z,100755.13
2022-10-05T02:29:53.000Z,100758.59
2022-10-05T02:33:00.079Z,100746.38
2022-10-05T02:36:10.910Z,100727.09
2022-10-05T02:39:20.902Z,100723.63
2022-10-05T02:42:28.899Z,100728.56
2022-10-05T02:45:41.441Z,100725.63
2022-10-05T02:48:52.977Z,100721.78
2022-10-05T02:51:59.812Z,100740.47
2022-10-05T02:55:10.247Z,100736.56
2022-10-05T02:58:15.157Z,100734.72
2022-10-05T03:01:24.805Z,100726.97
2022-10-05T03:04:38.645Z,100717.69
2022-10-05T03:07:47.953Z,100724.75
2022-10-05T03:11:01.165Z,100713.16
2022-10-05T03:14:10.126Z,100701.38
2022-10-05T03:17:15.883Z,100706.63
2022-10-05T03:20:30.393Z,100695.88
2022-10-05T03:23:42.023Z,100684.59
2022-10-05T03:26:53.813Z,100687.00
2022-10-05T03:30:02.333Z,100700.50
2022-10-05T03:33:14.796Z,100708.25
2022-10-05T03:36:24.366Z,100710.25
2022-10-05T03:39:33.920Z,100713.97
2022-10-05T03:42:51.921Z,100725.63
2022-10-05T03:46:02.149Z,100732.09
2022-10-05T03:49:14.102Z,100731.28
2022-10-05T03:52:23.127Z,100746.41
2022-10-05T03:55:30.966Z,100753.47
2022-10-05T03:58:40.815Z,100756.69
2022-10-05T04:01:51.532Z,100761.72
2022-10-05T04:04:56.763Z,100754.25
2022-10-05T04:08:07.541Z,100748.66
2022-10-05T04:11:13.501Z,100752.91
2022-10-05T04:14:21.547Z,100755.03
2022-10-05T04:17:34.393Z,100758.25
2022-10-05T04:20:42.033Z,100752.06
2022-10-05T04:23:55.305Z,100754.34
2022-10-05T04:27:00.698Z,100758.19
2022-10-05T04:30:11.609Z,100754.03
2022-10-05T04:33:15.910Z,100751.34
2022-10-05T04:36:24.660Z,100753.41
2022-10-05T04:39:41.169Z,100750.19
2022-10-05T04:42:50.102Z,100749.09
2022-10-05T04:46:12.396Z,100748.94
2022-10-05T04:49:27.071Z,100750.03
2022-10-05T04:52:37.205Z,100752.91
2022-10-05T04:55:51.520Z,100755.19
2022-10-05T04:59:10.539Z,100749.00
2022-10-05T05:02:21.864Z,100760.56
2022-10-05T05:05:31.911Z,100759.91
2022-10-05T05:08:50.793Z,100759.75
2022-10-05T05:12:17.045Z,100762.22
2022-10-05T05:15:36.243Z,100769.88
2022-10-05T05:19:05.169Z,100769.28
2022-10-05T05:22:14.138Z,100777.81
2022-10-05T05:25:24.951Z,100780.13
2022-10-05T05:28:37.380Z,100792.75
2022-10-05T05:31:47.116Z,100790.47
2022-10-05T05:35:03.804Z,100796.47
2022-10-05T05:38:18.694Z,100801.53
2022-10-05T05:41:30.427Z,100812.59
2022-10-05T05:44:41.421Z,100810.56
2022-10-05T05:47:51.970Z,100819.53
2022-10-05T05:50:59.679Z,100822.75
2022-10-05T05:54:26.583Z,100827.81
2022-10-05T05:57:35.997Z,100820.81
2022-10-05T06:00:46.523Z,100825.56
2022-10-05T06:03:54.045Z,100828.50
2022-10-05T06:06:58.153Z,100823.69
2022-10-05T06:10:05.622Z,100832.00
2022-10-05T06:13:26.476Z,100830.06
2022-10-05T06:16:34.090Z,100830.94
2022-10-05T06:19:38.042Z,100828.72
2022-10-05T06:22:44.651Z,100831.84
2022-10-05T06:25:58.698Z,100831.91
2022-10-05T06:29:05.340Z,100843.97
2022-10-05T06:32:21.346Z,100832.72
2022-10-05T06:35:38.219Z,100832.78
2022-10-05T06:38:53.906Z,100831.38
2022-10-05T06:42:10.550Z,100832.81
2022-10-05T06:45:41.669Z,100830.19
2022-10-05T06:49:29.291Z,100820.63
2022-10-05T06:53:20.203Z,100822.31
2022-10-05T06:56:29.713Z,100820.44
2022-10-05T06:59:38.825Z,100819.53
2022-10-05T07:02:45.652Z,100821.34
2022-10-05T07:06:11.900Z,100819.47
2022-10-05T07:09:25.618Z,100813.88
2022-10-05T07:12:45.240Z,100817.56
2022-10-05T07:15:56.870Z,100812.16
2022-10-05T07:19:11.094Z,100807.41
2022-10-05T07:22:37.432Z,100810.31
2022-10-05T07:25:46.241Z,100805.19
2022-10-05T07:28:53.766Z,100807.25
2022-10-05T07:32:04.170Z,100807.53
2022-10-05T07:35:33.398Z,100814.78
2022-10-05T07:38:43.060Z,100816.63
2022-10-05T07:41:52.850Z,100818.75
2022-10-05T07:45:02.281Z,100816.13
2022-10-05T07:48:12.264Z,100820.25
2022-10-05T07:51:26.901Z,100828.00
2022-10-05T07:54:36.541Z,100827.91
2022-10-05T07:57:48.891Z,100831.06
2022-10-05T08:01:08.095Z,100831.78
2022-10-05T08:04:16.585Z,100829.84
2022-10-05T08:07:18.668Z,100832.94
2022-10-05T08:10:31.760Z,100827.16
2022-10-05T08:13:42.329Z,100824.16
2022-10-05T08:16:48.442Z,100820.00
2022-10-05T08:19:56.519Z,100824.63
2022-10-05T08:23:03.109Z,100819.94
2022-10-05T08:26:17.501Z,100819.88
2022-10-05T08:29:27.370Z,100809.22
2022-10-05T08:32:33.034Z,100806.19
2022-10-05T08:35:40.267Z,100808.09
2022-10-05T08:38:42.486Z,100799.50
2022-10-05T08:42:10.926Z,100803.09
2022-10-05T08:45:50.930Z,100800.59
2022-10-05T08:49:12.636Z,100796.25
2022-10-05T08:52:28.980Z,100795.56
2022-10-05T08:55:41.144Z,100800.16
2022-10-05T08:59:08.257Z,100802.91
2022-10-05T09:02:20.802Z,100794.53
2022-10-05T09:05:37.766Z,100796.53
2022-10-05T09:09:02.714Z,100789.94
2022-10-05T09:12:21.957Z,100789.97
2022-10-05T09:15:44.469Z,100785.78
2022-10-05T09:19:01.315Z,100790.94
2022-10-05T09:22:15.558Z,100789.59
2022-10-05T09:25:26.033Z,100796.50
2022-10-05T09:28:34.396Z,100799.84
2022-10-05T09:31:59.879Z,100789.03
2022-10-05T09:35:21.103Z,100785.06
2022-10-05T09:38:33.553Z,100785.44
2022-10-05T09:42:11.557Z,100788.69
2022-10-05T09:45:38.639Z,100783.28
2022-10-05T09:49:12.135Z,100788.97
2022-10-05T09:52:39.778Z,100777.88
2022-10-05T09:56:09.311Z,100785.63
2022-10-05T09:59:42.202Z,100782.41
2022-10-05T10:03:11.349Z,100772.63
2022-10-05T10:06:38.989Z,100771.94
2022-10-05T10:09:53.874Z,100765.56
2022-10-05T10:13:19.649Z,100761.38
2022-10-05T10:16:37.804Z,100760.16
2022-10-05T10:20:11.990Z,100755.25
2022-10-05T10:23:35.777Z,100758.75
2022-10-05T10:27:05.525Z,100762.75
2022-10-05T10:30:27.653Z,100763.63
2022-10-05T10:34:13.314Z,100755.06
2022-10-05T10:37:36.666Z,100756.63
2022-10-05T10:40:50.769Z,100755.84
2022-10-05T10:44:23.082Z,100748.56
2022-10-05T10:47:48.659Z,100750.88
2022-10-05T10:51:17.397Z,100745.16
2022-10-05T10:54:36.979Z,100743.06
2022-10-05T10:57:57.810Z,100745.56
2022-10-05T11:01:15.017Z,100724.88
2022-10-05T11:04:44.361Z,100729.16
2022-10-05T11:08:18.447Z,100722.28
2022-10-05T11:11:36.171Z,100720.34
2022-10-05T11:15:11.777Z,100712.94
2022-10-05T11:18:20.535Z,100708.91
2022-10-05T11:21:31.680Z,100700.25
2022-10-05T11:25:19.744Z,100714.13
2022-10-05T11:28:40.133Z,100707.81
2022-10-05T11:32:15.463Z,100705.34
2022-10-05T11:35:46.226Z,100701.66
2022-10-05T11:39:11.427Z,100708.34
2022-10-05T11:42:49.047Z,100693.94
2022-10-05T11:46:10.635Z,100704.09
2022-10-05T11:49:26.509Z,100690.53
2022-10-05T11:52:38.572Z,100676.19
2022-10-05T11:55:45.508Z,100675.72
2022-10-05T11:58:54.146Z,100671.53
2022-10-05T12:02:05.135Z,100662.28
2022-10-05T12:05:15.890Z,100656.94
2022-10-05T12:08:28.583Z,100655.06
2022-10-05T12:11:47.682Z,100643.66
2022-10-05T12:14:57.611Z,100638.53
2022-10-05T12:18:08.251Z,100635.13
2022-10-05T12:21:17.467Z,100631.00
2022-10-05T12:24:29.473Z,100637.88
2022-10-05T12:27:35.992Z,100628.13
2022-10-05T12:31:00.315Z,100634.19
2022-10-05T12:34:11.198Z,100631.69
2022-10-05T12:37:32.706Z,100628.22
2022-10-05T12:40:42.004Z,100626.59
2022-10-05T12:43:54.889Z,100617.34
2022-10-05T12:47:03.830Z,100620.44
2022-10-05T12:50:19.270Z,100615.91
2022-10-05T12:53:32.945Z,100620.16
2022-10-05T12:56:44.774Z,100617.13
2022-10-05T12:59:54.510Z,100612.19
2022-10-05T13:03:01.627Z,100617.06
2022-10-05T13:06:14.122Z,100611.59
2022-10-05T13:09:23.611Z,100613.38
2022-10-05T13:12:38.388Z,100610.91
2022-10-05T13:15:49.765Z,100608.53
2022-10-05T13:19:02.269Z,100603.16
2022-10-05T13:22:20.613Z,100593.13
2022-10-05T13:25:30.111Z,100593.63
2022-10-05T13:28:42.124Z,100596.56
2022-10-05T13:31:47.905Z,100587.13
2022-10-05T13:35:06.690Z,100600.72
2022-10-05T13:38:27.482Z,100597.63
2022-10-05T13:41:39.438Z,100584.28
2022-10-05T13:44:48.881Z,100593.66
2022-10-05T13:48:01.907Z,100579.97
2022-10-05T13:51:12.874Z,100579.38
2022-10-05T13:54:22.893Z,100581.84
2022-10-05T13:57:35.625Z,100566.44
2022-10-05T14:00:46.635Z,100567.50
2022-10-05T14:04:04.650Z,100566.44
2022-10-05T14:07:25.093Z,100559.63
2022-10-05T14:10:34.164Z,100562.53
2022-10-05T14:13:49.068Z,100562.34
2022-10-05T14:16:54.437Z,100554.78
2022-10-05T14:20:03.001Z,100554.13
2022-10-05T14:23:14.733Z,100551.88
2022-10-05T14:26:31.312Z,100541.78
2022-10-05T14:29:35.873Z,100538.31
2022-10-05T14:32:52.865Z,100535.47
2022-10-05T14:35:56.543Z,100544.66
2022-10-05T14:39:02.193Z,100534.72
2022-10-05T14:42:14.773Z,100548.09
2022-10-05T14:45:19.783Z,100544.50
2022-10-05T14:48:23.725Z,100531.47
2022-10-05T14:51:31.813Z,100523.94
2022-10-05T14:54:46.900Z,100533.97
2022-10-05T14:58:02.869Z,100537.22
2022-10-05T15:01:14.811Z,100530.25
2022-10-05T15:04:30.264Z,100532.22
2022-10-05T15:07:38.900Z,100530.25
2022-10-05T15:10:43.302Z,100532.78
2022-10-05T15:13:48.550Z,100522.97
2022-10-05T15:16:52.826Z,100522.44
2022-10-05T15:20:05.105Z,100530.16
2022-10-05T15:23:24.516Z,100529.13
2022-10-05T15:26:42.611Z,100530.66
2022-10-05T15:30:03.328Z,100521.53
2022-10-05T15:33:13.919Z,100518.47
2022-10-05T15:36:20.611Z,100521.31
2022-10-05T15:39:32.694Z,100512.59
2022-10-05T15:42:38.209Z,100499.75
2022-10-05T15:45:53.070Z,100511.63
2022-10-05T15:49:08.392Z,100512.34
2022-10-05T15:52:23.699Z,100507.59
2022-10-05T15:55:35.133Z,100504.31
2022-10-05T15:58:50.975Z,100504.63
2022-10-05T16:02:00.759Z,100499.28
2022-10-05T16:05:17.462Z,100501.13
2022-10-05T16:08:55.682Z,100494.91
2022-10-05T16:12:15.663Z,100498.09
2022-10-05T16:15:28.352Z,100502.69
2022-10-05T16:18:47.308Z,100497.63
2022-10-05T16:21:58.093Z,100504.75
2022-10-05T16:25:11.288Z,100505.75
2022-10-05T16:28:29.304Z,100502.84
2022-10-05T16:31:37.394Z,100507.84
2022-10-05T16:34:56.241Z,100509.94
2022-10-05T16:38:10.380Z,100512.88
2022-10-05T16:41:20.185Z,100518.78
2022-10-05T16:44:31.379Z,100529.38
2022-10-05T16:47:43.653Z,100520.78
2022-10-05T16:50:56.235Z,100520.34
2022-10-05T16:54:11.994Z,100523.72
2022-10-05T16:57:22.731Z,100527.25
2022-10-05T17:00:26.946Z,100537.84
2022-10-05T17:03:41.350Z,100535.06
2022-10-05T17:07:35.094Z,100534.06
2022-10-05T17:10:50.340Z,100539.44
2022-10-05T17:14:16.674Z,100541.59
2022-10-05T17:17:48.973Z,100554.13
2022-10-05T17:21:01.098Z,100561.03
2022-10-05T17:24:20.227Z,100552.66
2022-10-05T17:27:32.784Z,100561.50
2022-10-05T17:30:49.038Z,100582.28
2022-10-05T17:34:26.409Z,100581.81
2022-10-05T17:37:35.741Z,100580.75
2022-10-05T17:40:38.935Z,100594.81
2022-10-05T17:44:01.333Z,100591.88
2022-10-05T17:47:08.267Z,100607.50
2022-10-05T17:50:30.669Z,100610.16
2022-10-05T17:53:56.080Z,100624.69
2022-10-05T17:57:22.726Z,100634.69
2022-10-05T18:01:04.243Z,100630.75
2022-10-05T18:04:30.773Z,100649.97
2022-10-05T18:07:34.106Z,100644.78
2022-10-05T18:10:41.183Z,100645.94
2022-10-05T18:13:46.491Z,100656.13
2022-10-05T18:16:57.173Z,100660.22
2022-10-05T18:20:15.130Z,100670.06
2022-10-05T18:23:30.130Z,100671.13
2022-10-05T18:26:40.285Z,100677.81
2022-10-05T18:30:09.017Z,100682.19
2022-10-05T18:33:49.437Z,100694.59
2022-10-05T18:37:16.630Z,100695.13
2022-10-05T18:40:36.590Z,100701.00
2022-10-05T18:43:47.168Z,100704.16
2022-10-05T18:46:55.335Z,100704.66
2022-10-05T18:50:08.847Z,100712.25
2022-10-05T18:53:26.131Z,100718.81
2022-10-05T18:56:34.332Z,100719.94
2022-10-05T18:59:46.557Z,100714.72
2022-10-05T19:02:51.215Z,100725.72
2022-10-05T19:05:59.523Z,100731.09
2022-10-05T19:09:28.336Z,100729.16
2022-10-05T19:12:44.258Z,100736.47
2022-10-05T19:15:54.082Z,100733.94
2022-10-05T19:19:09.210Z,100742.91
2022-10-05T19:22:18.578Z,100751.09
2022-10-05T19:25:37.014Z,100749.66
2022-10-05T19:28:45.342Z,100761.28
2022-10-05T19:31:53.194Z,100755.78
2022-10-05T19:35:05.717Z,100762.59
2022-10-05T19:38:21.413Z,100766.41
2022-10-05T19:41:32.521Z,100765.59
2022-10-05T19:44:52.548Z,100767.22
2022-10-05T19:48:11.765Z,100761.53
2022-10-05T19:51:20.447Z,100767.84
2022-10-05T19:54:30.648Z,100776.22
2022-10-05T19:57:33.843Z,100776.97
2022-10-05T20:00:36.809Z,100777.75
2022-10-05T20:03:40.937Z,100786.78
2022-10-05T20:06:42.668Z,100801.06
2022-10-05T20:09:54.335Z,100802.03
2022-10-05T20:12:59.024Z,100814.94
2022-10-05T20:16:36.466Z,100808.41
2022-10-05T20:19:57.336Z,100816.69
2022-10-05T20:23:21.816Z,100815.53
2022-10-05T20:27:01.508Z,100824.38
2022-10-05T20:30:05.845Z,100834.53
2022-10-05T20:33:11.600Z,100835.34
2022-10-05T20:36:13.459Z,100835.53
2022-10-05T20:39:15.860Z,100844.25
2022-10-05T20:42:18.810Z,100855.94
2022-10-05T20:45:21.970Z,100852.44
2022-10-05T20:48:24.226Z,100852.75
2022-10-05T20:51:28.782Z,100860.22
2022-10-05T20:54:30.985Z,100863.13
2022-10-05T20:57:32.790Z,100862.19
2022-10-05T21:00:54.544Z,100866.06
2022-10-05T21:03:56.266Z,100868.78
2022-10-05T21:06:57.903Z,100872.81
2022-10-05T21:09:59.678Z,100879.72
2022-10-05T21:13:02.754Z,100879.22
2022-10-05T21:16:12.739Z,100885.75
2022-10-05T21:19:15.458Z,100890.88
2022-10-05T21:22:17.103Z,100909.28
2022-10-05T21:25:18.763Z,100905.34
2022-10-05T21:28:22.072Z,100903.47
2022-10-05T21:31:25.665Z,100913.50
2022-10-05T21:34:29.325Z,100925.63
2022-10-05T21:37:30.946Z,100912.25
2022-10-05T21:40:32.718Z,100924.38
2022-10-05T21:43:34.427Z,100921.50
2022-10-05T21:46:39.024Z,100925.41
2022-10-05T21:49:41.529Z,100929.84
2022-10-05T21:52:43.331Z,100927.72
2022-10-05T21:55:47.097Z,100936.97
2022-10-05T21:58:49.981Z,100937.63
2022-10-05T22:01:53.052Z,100949.47
2022-10-05T22:04:54.705Z,100934.19
2022-10-05T22:07:56.389Z,100951.53
2022-10-05T22:10:59.162Z,100945.06
2022-10-05T22:14:04.085Z,100947.56
2022-10-05T22:17:36.138Z,100947.00
2022-10-05T22:20:38.294Z,100960.75
2022-10-05T22:23:40.863Z,100973.38
2022-10-05T22:26:45.839Z,100970.97
2022-10-05T22:29:47.781Z,100976.94
2022-10-05T22:32:50.825Z,100968.50
2022-10-05T22:35:52.790Z,100959.41
2022-10-05T22:38:54.451Z,100962.09
2022-10-05T22:41:56.459Z,100954.72
2022-10-05T22:44:58.519Z,100963.94
2022-10-05T22:48:01.661Z,100961.91
2022-10-05T22:51:04.434Z,100966.47
2022-10-05T22:54:06.300Z,100970.41
2022-10-05T22:57:07.940Z,100960.88
2022-10-05T23:00:12.125Z,100957.81
2022-10-05T23:03:16.417Z,100966.25
2022-10-05T23:06:20.323Z,100960.81
2022-10-05T23:09:22.365Z,100970.41
2022-10-05T23:12:24.109Z,100971.03
2022-10-05T23:15:26.211Z,100962.22
2022-10-05T23:18:29.599Z,100971.38
2022-10-05T23:21:31.948Z,100971.47
2022-10-05T23:24:34.793Z,100985.69
2022-10-05T23:27:37.478Z,100985.94
2022-10-05T23:30:39.203Z,100988.34
2022-10-05T23:33:42.358Z,100996.41
2022-10-05T23:36:44.014Z,100984.75
2022-10-05T23:39:45.747Z,100988.75
2022-10-05T23:42:47.552Z,100997.09
2022-10-05T23:45:49.430Z,101008.16
2022-10-05T23:48:53.196Z,101007.72
2022-10-05T23:51:54.869Z,100998.78
2022-10-05T23:54:56.539Z,101012.91
2022-10-05T23:57:58.279Z,101022.63
